sensor_id;sensor_type;location;lat;lon;timestamp;pressure;altitude;pressure_sealevel;temperature;humidity
60049;BME280;66154;45.544;6.756;2023-05-15T00:01:36;86735.41;;;7.08;95.52
60049;BME280;66154;45.544;6.756;2023-05-15T00:06:37;86722.66;;;7.17;93.19
60049;BME280;66154;45.544;6.756;2023-05-15T00:11:37;86720.84;;;7.18;91.96
60049;BME280;66154;45.544;6.756;2023-05-15T00:16:38;86719.19;;;5.89;100.00
60049;BME280;66154;45.544;6.756;2023-05-15T00:21:38;86720.38;;;6.23;100.00
60049;BME280;66154;45.544;6.756;2023-05-15T00:26:39;86716.22;;;6.36;100.00
60049;BME280;66154;45.544;6.756;2023-05-15T00:31:39;86715.72;;;6.16;100.00
60049;BME280;66154;45.544;6.756;2023-05-15T00:36:40;86715.69;;;6.65;100.00
60049;BME280;66154;45.544;6.756;2023-05-15T00:41:42;86714.66;;;6.93;100.00
60049;BME280;66154;45.544;6.756;2023-05-15T00:46:45;86714.16;;;6.64;100.00
60049;BME280;66154;45.544;6.756;2023-05-15T00:51:46;86715.81;;;6.51;100.00
60049;BME280;66154;45.544;6.756;2023-05-15T00:56:48;86709.16;;;6.42;100.00
60049;BME280;66154;45.544;6.756;2023-05-15T01:01:50;86705.47;;;6.57;100.00
60049;BME280;66154;45.544;6.756;2023-05-15T01:06:50;86706.50;;;6.56;100.00
60049;BME280;66154;45.544;6.756;2023-05-15T01:11:53;86703.22;;;6.55;100.00
60049;BME280;66154;45.544;6.756;2023-05-15T01:16:54;86700.34;;;6.57;100.00
60049;BME280;66154;45.544;6.756;2023-05-15T01:38:23;86713.91;;;6.75;100.00
60049;BME280;66154;45.544;6.756;2023-05-15T01:43:28;86714.81;;;6.87;97.71
60049;BME280;66154;45.544;6.756;2023-05-15T01:48:32;86709.22;;;6.50;100.00
60049;BME280;66154;45.544;6.756;2023-05-15T01:53:33;86705.47;;;6.08;100.00
60049;BME280;66154;45.544;6.756;2023-05-15T01:58:36;86705.03;;;6.14;100.00
60049;BME280;66154;45.544;6.756;2023-05-15T02:03:39;86698.13;;;5.84;100.00
60049;BME280;66154;45.544;6.756;2023-05-15T02:08:40;86708.56;;;6.36;100.00
60049;BME280;66154;45.544;6.756;2023-05-15T02:13:42;86694.34;;;6.70;100.00
60049;BME280;66154;45.544;6.756;2023-05-15T02:18:43;86691.66;;;6.75;98.73
60049;BME280;66154;45.544;6.756;2023-05-15T02:23:44;86701.41;;;6.73;99.18
60049;BME280;66154;45.544;6.756;2023-05-15T02:28:53;86701.22;;;6.43;100.00
60049;BME280;66154;45.544;6.756;2023-05-15T02:34:17;86689.09;;;6.00;100.00
60049;BME280;66154;45.544;6.756;2023-05-15T02:39:24;86697.31;;;6.55;100.00
60049;BME280;66154;45.544;6.756;2023-05-15T02:44:25;86688.91;;;6.63;100.00
60049;BME280;66154;45.544;6.756;2023-05-15T02:49:26;86683.22;;;5.68;100.00
60049;BME280;66154;45.544;6.756;2023-05-15T02:54:27;86687.63;;;6.16;100.00
60049;BME280;66154;45.544;6.756;2023-05-15T02:59:27;86690.47;;;6.06;100.00
60049;BME280;66154;45.544;6.756;2023-05-15T03:04:28;86696.06;;;6.26;100.00
60049;BME280;66154;45.544;6.756;2023-05-15T03:09:29;86690.81;;;5.91;100.00
60049;BME280;66154;45.544;6.756;2023-05-15T03:14:29;86696.16;;;6.03;100.00
60049;BME280;66154;45.544;6.756;2023-05-15T03:19:30;86693.22;;;5.87;100.00
60049;BME280;66154;45.544;6.756;2023-05-15T03:24:31;86688.00;;;6.41;100.00
60049;BME280;66154;45.544;6.756;2023-05-15T03:29:31;86682.72;;;6.29;100.00
60049;BME280;66154;45.544;6.756;2023-05-15T03:34:32;86686.00;;;6.29;100.00
60049;BME280;66154;45.544;6.756;2023-05-15T03:39:32;86680.38;;;5.70;100.00
60049;BME280;66154;45.544;6.756;2023-05-15T03:44:33;86672.38;;;5.94;100.00
60049;BME280;66154;45.544;6.756;2023-05-15T03:49:34;86674.59;;;6.35;100.00
60049;BME280;66154;45.544;6.756;2023-05-15T03:54:34;86672.41;;;6.03;100.00
60049;BME280;66154;45.544;6.756;2023-05-15T03:59:35;86670.19;;;6.10;100.00
60049;BME280;66154;45.544;6.756;2023-05-15T04:04:36;86666.28;;;6.04;100.00
60049;BME280;66154;45.544;6.756;2023-05-15T04:09:37;86664.69;;;6.25;98.09
60049;BME280;66154;45.544;6.756;2023-05-15T04:14:38;86673.56;;;6.45;97.88
60049;BME280;66154;45.544;6.756;2023-05-15T04:19:38;86675.81;;;6.38;100.00
60049;BME280;66154;45.544;6.756;2023-05-15T04:24:39;86677.63;;;6.38;100.00
60049;BME280;66154;45.544;6.756;2023-05-15T04:29:40;86677.19;;;5.64;100.00
60049;BME280;66154;45.544;6.756;2023-05-15T04:34:40;86679.25;;;5.53;100.00
60049;BME280;66154;45.544;6.756;2023-05-15T04:39:41;86682.25;;;5.87;100.00
60049;BME280;66154;45.544;6.756;2023-05-15T04:44:42;86685.56;;;5.87;100.00
60049;BME280;66154;45.544;6.756;2023-05-15T04:49:43;86693.69;;;6.38;100.00
60049;BME280;66154;45.544;6.756;2023-05-15T04:54:44;86692.47;;;6.27;100.00
60049;BME280;66154;45.544;6.756;2023-05-15T04:59:47;86698.81;;;6.38;100.00
60049;BME280;66154;45.544;6.756;2023-05-15T05:04:48;86696.44;;;6.50;100.00
60049;BME280;66154;45.544;6.756;2023-05-15T05:09:48;86698.41;;;6.53;100.00
60049;BME280;66154;45.544;6.756;2023-05-15T05:14:49;86701.81;;;6.40;100.00
60049;BME280;66154;45.544;6.756;2023-05-15T05:19:49;86701.31;;;5.58;100.00
60049;BME280;66154;45.544;6.756;2023-05-15T05:24:50;86701.97;;;6.44;100.00
60049;BME280;66154;45.544;6.756;2023-05-15T05:29:50;86705.59;;;5.71;100.00
60049;BME280;66154;45.544;6.756;2023-05-15T05:34:53;86701.06;;;6.48;100.00
60049;BME280;66154;45.544;6.756;2023-05-15T05:39:53;86712.53;;;6.68;100.00
60049;BME280;66154;45.544;6.756;2023-05-15T05:44:54;86700.38;;;6.74;100.00
60049;BME280;66154;45.544;6.756;2023-05-15T05:49:54;86694.25;;;6.18;100.00
60049;BME280;66154;45.544;6.756;2023-05-15T05:54:55;86691.16;;;6.47;100.00
60049;BME280;66154;45.544;6.756;2023-05-15T05:59:56;86689.97;;;6.70;100.00
60049;BME280;66154;45.544;6.756;2023-05-15T06:04:56;86686.53;;;6.75;100.00
60049;BME280;66154;45.544;6.756;2023-05-15T06:09:57;86690.66;;;6.19;100.00
60049;BME280;66154;45.544;6.756;2023-05-15T06:14:57;86690.16;;;5.76;100.00
60049;BME280;66154;45.544;6.756;2023-05-15T06:19:58;86698.22;;;6.41;100.00
60049;BME280;66154;45.544;6.756;2023-05-15T06:24:58;86692.53;;;5.41;100.00
60049;BME280;66154;45.544;6.756;2023-05-15T06:29:59;86691.28;;;5.93;100.00
60049;BME280;66154;45.544;6.756;2023-05-15T06:35:00;86696.81;;;5.55;100.00
60049;BME280;66154;45.544;6.756;2023-05-15T06:40:00;86694.69;;;6.20;100.00
60049;BME280;66154;45.544;6.756;2023-05-15T06:45:01;86685.56;;;5.96;100.00
60049;BME280;66154;45.544;6.756;2023-05-15T06:50:02;86676.25;;;5.91;100.00
60049;BME280;66154;45.544;6.756;2023-05-15T06:55:06;86683.41;;;6.03;100.00
60049;BME280;66154;45.544;6.756;2023-05-15T07:00:07;86683.44;;;6.21;100.00
60049;BME280;66154;45.544;6.756;2023-05-15T07:05:09;86690.44;;;6.64;100.00
60049;BME280;66154;45.544;6.756;2023-05-15T07:10:10;86684.00;;;6.93;100.00
60049;BME280;66154;45.544;6.756;2023-05-15T07:15:11;86679.03;;;7.05;100.00
60049;BME280;66154;45.544;6.756;2023-05-15T07:20:11;86679.34;;;6.95;100.00
60049;BME280;66154;45.544;6.756;2023-05-15T07:25:12;86683.50;;;6.56;100.00
60049;BME280;66154;45.544;6.756;2023-05-15T07:30:12;86686.09;;;6.91;100.00
60049;BME280;66154;45.544;6.756;2023-05-15T07:35:13;86682.94;;;6.94;100.00
60049;BME280;66154;45.544;6.756;2023-05-15T07:40:14;86687.41;;;6.53;100.00
60049;BME280;66154;45.544;6.756;2023-05-15T07:45:14;86683.97;;;6.49;100.00
60049;BME280;66154;45.544;6.756;2023-05-15T07:50:15;86678.56;;;6.59;100.00
60049;BME280;66154;45.544;6.756;2023-05-15T07:55:16;86665.31;;;7.18;100.00
60049;BME280;66154;45.544;6.756;2023-05-15T08:00:17;86666.16;;;7.57;100.00
60049;BME280;66154;45.544;6.756;2023-05-15T08:05:18;86650.00;;;7.27;100.00
60049;BME280;66154;45.544;6.756;2023-05-15T08:10:18;86652.25;;;7.29;100.00
60049;BME280;66154;45.544;6.756;2023-05-15T08:15:19;86647.41;;;7.36;99.82
60049;BME280;66154;45.544;6.756;2023-05-15T08:20:19;86636.88;;;8.23;91.50
60049;BME280;66154;45.544;6.756;2023-05-15T08:25:20;86634.75;;;7.95;91.24
60049;BME280;66154;45.544;6.756;2023-05-15T08:30:20;86632.91;;;8.05;91.12
60049;BME280;66154;45.544;6.756;2023-05-15T08:35:21;86642.69;;;8.03;88.01
60049;BME280;66154;45.544;6.756;2023-05-15T08:40:21;86639.69;;;8.30;81.89
60049;BME280;66154;45.544;6.756;2023-05-15T08:45:22;86636.84;;;8.83;78.93
60049;BME280;66154;45.544;6.756;2023-05-15T08:50:23;86630.50;;;9.22;78.93
60049;BME280;66154;45.544;6.756;2023-05-15T08:55:25;86634.50;;;9.11;76.34
60049;BME280;66154;45.544;6.756;2023-05-15T09:00:27;86627.06;;;8.97;78.94
60049;BME280;66154;45.544;6.756;2023-05-15T09:05:28;86627.59;;;8.69;78.69
60049;BME280;66154;45.544;6.756;2023-05-15T09:10:29;86625.44;;;9.14;77.82
60049;BME280;66154;45.544;6.756;2023-05-15T09:15:31;86620.94;;;9.90;73.18
60049;BME280;66154;45.544;6.756;2023-05-15T09:20:33;86616.38;;;9.62;74.17
60049;BME280;66154;45.544;6.756;2023-05-15T09:30:38;86605.63;;;9.35;73.94
60049;BME280;66154;45.544;6.756;2023-05-15T09:35:39;86608.63;;;9.37;73.54
60049;BME280;66154;45.544;6.756;2023-05-15T09:40:40;86606.81;;;9.04;72.01
60049;BME280;66154;45.544;6.756;2023-05-15T09:45:40;86599.84;;;9.84;71.20
60049;BME280;66154;45.544;6.756;2023-05-15T09:50:42;86603.22;;;9.18;70.73
60049;BME280;66154;45.544;6.756;2023-05-15T09:55:42;86602.00;;;9.36;72.72
60049;BME280;66154;45.544;6.756;2023-05-15T10:00:44;86603.97;;;9.52;70.80
60049;BME280;66154;45.544;6.756;2023-05-15T10:05:45;86596.47;;;9.59;67.79
60049;BME280;66154;45.544;6.756;2023-05-15T10:10:46;86597.03;;;9.19;72.73
60049;BME280;66154;45.544;6.756;2023-05-15T10:15:48;86595.63;;;9.67;70.58
60049;BME280;66154;45.544;6.756;2023-05-15T10:20:49;86593.72;;;9.76;65.62
60049;BME280;66154;45.544;6.756;2023-05-15T10:26:03;86592.16;;;10.33;63.74
60049;BME280;66154;45.544;6.756;2023-05-15T10:31:06;86580.59;;;10.15;66.03
60049;BME280;66154;45.544;6.756;2023-05-15T10:36:08;86578.75;;;10.52;60.23
60049;BME280;66154;45.544;6.756;2023-05-15T10:41:10;86569.97;;;11.22;62.74
60049;BME280;66154;45.544;6.756;2023-05-15T10:46:12;86574.56;;;11.01;63.51
60049;BME280;66154;45.544;6.756;2023-05-15T10:51:17;86565.84;;;11.34;65.11
60049;BME280;66154;45.544;6.756;2023-05-15T10:56:18;86566.56;;;11.18;65.24
60049;BME280;66154;45.544;6.756;2023-05-15T11:01:29;86573.84;;;11.16;64.15
60049;BME280;66154;45.544;6.756;2023-05-15T11:06:35;86575.25;;;10.20;64.83
60049;BME280;66154;45.544;6.756;2023-05-15T11:22:41;86576.25;;;10.68;63.45
60049;BME280;66154;45.544;6.756;2023-05-15T11:27:37;86574.94;;;10.75;65.61
60049;BME280;66154;45.544;6.756;2023-05-15T11:37:58;86578.63;;;11.02;70.08
60049;BME280;66154;45.544;6.756;2023-05-15T11:43:09;86570.78;;;10.70;68.55
60049;BME280;66154;45.544;6.756;2023-05-15T11:48:16;86572.06;;;11.33;63.52
60049;BME280;66154;45.544;6.756;2023-05-15T11:53:19;86563.22;;;11.46;63.54
60049;BME280;66154;45.544;6.756;2023-05-15T11:58:21;86555.03;;;11.72;66.17
60049;BME280;66154;45.544;6.756;2023-05-15T12:03:30;86557.72;;;11.03;52.75
60049;BME280;66154;45.544;6.756;2023-05-15T12:08:33;86552.13;;;11.14;53.68
60049;BME280;66154;45.544;6.756;2023-05-15T12:13:34;86554.50;;;11.51;55.49
60049;BME280;66154;45.544;6.756;2023-05-15T12:18:35;86547.66;;;12.03;57.42
60049;BME280;66154;45.544;6.756;2023-05-15T12:23:35;86546.31;;;12.09;57.29
60049;BME280;66154;45.544;6.756;2023-05-15T12:28:37;86549.47;;;12.18;57.47
60049;BME280;66154;45.544;6.756;2023-05-15T12:33:37;86536.00;;;11.77;56.20
60049;BME280;66154;45.544;6.756;2023-05-15T12:38:38;86533.50;;;12.12;56.39
60049;BME280;66154;45.544;6.756;2023-05-15T12:43:39;86531.44;;;12.18;56.59
60049;BME280;66154;45.544;6.756;2023-05-15T12:48:40;86532.75;;;12.28;54.21
60049;BME280;66154;45.544;6.756;2023-05-15T12:53:41;86520.84;;;12.23;54.01
60049;BME280;66154;45.544;6.756;2023-05-15T12:58:42;86530.41;;;12.23;53.26
60049;BME280;66154;45.544;6.756;2023-05-15T13:03:42;86524.72;;;11.82;53.93
60049;BME280;66154;45.544;6.756;2023-05-15T13:08:43;86511.53;;;12.35;50.10
60049;BME280;66154;45.544;6.756;2023-05-15T13:13:48;86520.50;;;12.41;50.80
60049;BME280;66154;45.544;6.756;2023-05-15T13:18:49;86518.66;;;12.41;51.37
60049;BME280;66154;45.544;6.756;2023-05-15T13:23:50;86512.88;;;12.12;49.60
60049;BME280;66154;45.544;6.756;2023-05-15T13:28:51;86516.53;;;12.63;48.93
60049;BME280;66154;45.544;6.756;2023-05-15T13:33:52;86504.38;;;12.83;48.07
60049;BME280;66154;45.544;6.756;2023-05-15T13:38:52;86503.63;;;13.21;47.93
60049;BME280;66154;45.544;6.756;2023-05-15T13:43:53;86500.28;;;13.40;44.66
60049;BME280;66154;45.544;6.756;2023-05-15T13:48:53;86481.50;;;15.38;46.95
60049;BME280;66154;45.544;6.756;2023-05-15T13:53:54;86482.75;;;14.00;46.25
60049;BME280;66154;45.544;6.756;2023-05-15T13:58:54;86490.97;;;14.05;44.27
60049;BME280;66154;45.544;6.756;2023-05-15T14:03:55;86487.84;;;14.49;44.17
60049;BME280;66154;45.544;6.756;2023-05-15T14:08:55;86475.44;;;15.61;41.96
60049;BME280;66154;45.544;6.756;2023-05-15T14:13:56;86487.75;;;14.65;43.10
60049;BME280;66154;45.544;6.756;2023-05-15T14:18:56;86475.00;;;15.55;42.04
60049;BME280;66154;45.544;6.756;2023-05-15T14:23:57;86471.81;;;15.31;41.07
60049;BME280;66154;45.544;6.756;2023-05-15T14:28:57;86466.78;;;16.39;40.30
60049;BME280;66154;45.544;6.756;2023-05-15T14:33:58;86462.06;;;17.54;41.83
60049;BME280;66154;45.544;6.756;2023-05-15T14:38:59;86472.25;;;16.86;38.41
60049;BME280;66154;45.544;6.756;2023-05-15T14:43:59;86459.56;;;18.12;36.61
60049;BME280;66154;45.544;6.756;2023-05-15T14:49:00;86458.53;;;16.89;39.17
60049;BME280;66154;45.544;6.756;2023-05-15T14:54:00;86453.41;;;16.37;39.99
60049;BME280;66154;45.544;6.756;2023-05-15T14:59:01;86448.59;;;17.05;39.43
60049;BME280;66154;45.544;6.756;2023-05-15T15:04:02;86443.97;;;18.22;35.87
60049;BME280;66154;45.544;6.756;2023-05-15T15:09:02;86434.69;;;19.42;32.41
60049;BME280;66154;45.544;6.756;2023-05-15T15:14:03;86446.41;;;19.86;32.26
60049;BME280;66154;45.544;6.756;2023-05-15T15:19:04;86440.69;;;19.35;33.06
60049;BME280;66154;45.544;6.756;2023-05-15T15:24:05;86443.47;;;20.30;31.63
60049;BME280;66154;45.544;6.756;2023-05-15T15:29:05;86442.50;;;20.96;31.75
60049;BME280;66154;45.544;6.756;2023-05-15T15:34:06;86447.94;;;18.95;32.44
60049;BME280;66154;45.544;6.756;2023-05-15T15:39:08;86451.00;;;16.69;35.29
60049;BME280;66154;45.544;6.756;2023-05-15T15:44:10;86447.97;;;17.59;41.11
60049;BME280;66154;45.544;6.756;2023-05-15T15:49:11;86444.47;;;15.34;38.78
60049;BME280;66154;45.544;6.756;2023-05-15T15:54:11;86457.97;;;17.46;36.22
60049;BME280;66154;45.544;6.756;2023-05-15T15:59:12;86439.88;;;18.07;35.40
60049;BME280;66154;45.544;6.756;2023-05-15T16:04:13;86444.50;;;19.09;35.14
60049;BME280;66154;45.544;6.756;2023-05-15T16:09:15;86449.28;;;16.95;35.29
60049;BME280;66154;45.544;6.756;2023-05-15T16:14:18;86442.13;;;20.11;33.17
60049;BME280;66154;45.544;6.756;2023-05-15T16:19:20;86441.44;;;20.03;34.17
60049;BME280;66154;45.544;6.756;2023-05-15T16:24:21;86444.06;;;19.29;34.16
60049;BME280;66154;45.544;6.756;2023-05-15T16:29:21;86439.19;;;21.26;31.38
60049;BME280;66154;45.544;6.756;2023-05-15T16:34:22;86439.47;;;20.67;32.59
60049;BME280;66154;45.544;6.756;2023-05-15T16:39:24;86448.94;;;20.88;36.35
60049;BME280;66154;45.544;6.756;2023-05-15T16:44:25;86447.78;;;20.92;30.50
60049;BME280;66154;45.544;6.756;2023-05-15T16:49:26;86449.31;;;21.86;29.42
60049;BME280;66154;45.544;6.756;2023-05-15T16:54:26;86447.28;;;20.18;31.15
60049;BME280;66154;45.544;6.756;2023-05-15T16:59:27;86448.25;;;23.05;28.78
60049;BME280;66154;45.544;6.756;2023-05-15T17:04:27;86452.78;;;22.57;28.66
60049;BME280;66154;45.544;6.756;2023-05-15T17:09:30;86462.06;;;19.79;35.87
60049;BME280;66154;45.544;6.756;2023-05-15T17:14:31;86480.00;;;18.31;37.63
60049;BME280;66154;45.544;6.756;2023-05-15T17:19:32;86476.28;;;18.10;38.60
60049;BME280;66154;45.544;6.756;2023-05-15T17:24:36;86460.59;;;17.53;36.97
60049;BME280;66154;45.544;6.756;2023-05-15T17:29:36;86477.38;;;16.82;40.32
60049;BME280;66154;45.544;6.756;2023-05-15T17:34:37;86476.03;;;15.09;42.82
60049;BME280;66154;45.544;6.756;2023-05-15T17:39:37;86493.91;;;14.88;41.19
60049;BME280;66154;45.544;6.756;2023-05-15T17:44:38;86506.38;;;13.52;45.51
60049;BME280;66154;45.544;6.756;2023-05-15T17:49:38;86503.31;;;13.69;47.62
60049;BME280;66154;45.544;6.756;2023-05-15T17:54:39;86508.31;;;12.77;46.59
60049;BME280;66154;45.544;6.756;2023-05-15T17:59:40;86510.41;;;14.22;43.12
60049;BME280;66154;45.544;6.756;2023-05-15T18:04:40;86518.13;;;13.49;44.90
60049;BME280;66154;45.544;6.756;2023-05-15T18:09:41;86511.72;;;14.36;43.23
60049;BME280;66154;45.544;6.756;2023-05-15T18:14:41;86510.94;;;14.08;43.37
60049;BME280;66154;45.544;6.756;2023-05-15T18:19:42;86511.28;;;14.34;43.38
60049;BME280;66154;45.544;6.756;2023-05-15T18:24:43;86510.34;;;12.87;44.72
60049;BME280;66154;45.544;6.756;2023-05-15T18:29:44;86509.38;;;13.34;45.86
60049;BME280;66154;45.544;6.756;2023-05-15T18:34:45;86518.66;;;13.82;46.80
60049;BME280;66154;45.544;6.756;2023-05-15T18:39:46;86525.03;;;13.88;46.17
60049;BME280;66154;45.544;6.756;2023-05-15T18:44:47;86523.34;;;11.88;48.78
60049;BME280;66154;45.544;6.756;2023-05-15T18:49:47;86532.81;;;13.06;48.45
60049;BME280;66154;45.544;6.756;2023-05-15T18:54:48;86537.63;;;13.27;48.93
60049;BME280;66154;45.544;6.756;2023-05-15T18:59:48;86533.28;;;13.31;49.14
60049;BME280;66154;45.544;6.756;2023-05-15T19:04:49;86542.88;;;13.11;48.93
60049;BME280;66154;45.544;6.756;2023-05-15T19:09:49;86537.09;;;13.18;49.32
60049;BME280;66154;45.544;6.756;2023-05-15T19:14:50;86534.88;;;13.16;50.83
60049;BME280;66154;45.544;6.756;2023-05-15T19:19:50;86544.69;;;11.24;57.05
60049;BME280;66154;45.544;6.756;2023-05-15T19:24:51;86543.97;;;12.04;54.23
60049;BME280;66154;45.544;6.756;2023-05-15T19:29:52;86547.50;;;12.47;50.01
60049;BME280;66154;45.544;6.756;2023-05-15T19:34:52;86544.22;;;12.66;48.63
60049;BME280;66154;45.544;6.756;2023-05-15T19:39:53;86558.13;;;11.50;53.20
60049;BME280;66154;45.544;6.756;2023-05-15T19:44:53;86551.84;;;12.62;51.03
60049;BME280;66154;45.544;6.756;2023-05-15T19:49:54;86546.94;;;12.38;50.63
60049;BME280;66154;45.544;6.756;2023-05-15T19:54:55;86558.59;;;12.31;50.40
60049;BME280;66154;45.544;6.756;2023-05-15T19:59:55;86564.75;;;11.79;52.47
60049;BME280;66154;45.544;6.756;2023-05-15T20:04:56;86569.50;;;12.25;50.89
60049;BME280;66154;45.544;6.756;2023-05-15T20:09:56;86576.50;;;11.48;56.24
60049;BME280;66154;45.544;6.756;2023-05-15T20:14:57;86584.75;;;10.20;59.89
60049;BME280;66154;45.544;6.756;2023-05-15T20:19:57;86579.53;;;11.22;56.60
60049;BME280;66154;45.544;6.756;2023-05-15T20:24:58;86583.53;;;11.35;56.70
60049;BME280;66154;45.544;6.756;2023-05-15T20:30:00;86594.50;;;11.48;57.20
60049;BME280;66154;45.544;6.756;2023-05-15T20:35:01;86589.44;;;11.08;58.89
60049;BME280;66154;45.544;6.756;2023-05-15T20:40:02;86601.50;;;11.48;57.94
60049;BME280;66154;45.544;6.756;2023-05-15T20:45:04;86607.00;;;11.34;57.86
60049;BME280;66154;45.544;6.756;2023-05-15T20:50:05;86604.13;;;11.07;57.44
60049;BME280;66154;45.544;6.756;2023-05-15T20:55:12;86609.91;;;10.63;60.83
60049;BME280;66154;45.544;6.756;2023-05-15T21:00:16;86599.81;;;11.11;59.67
60049;BME280;66154;45.544;6.756;2023-05-15T21:05:17;86600.09;;;10.81;59.84
60049;BME280;66154;45.544;6.756;2023-05-15T21:10:17;86596.69;;;10.90;60.10
60049;BME280;66154;45.544;6.756;2023-05-15T21:15:18;86591.75;;;10.84;60.12
60049;BME280;66154;45.544;6.756;2023-05-15T21:20:18;86589.63;;;10.86;60.49
60049;BME280;66154;45.544;6.756;2023-05-15T21:25:19;86591.28;;;10.42;61.17
60049;BME280;66154;45.544;6.756;2023-05-15T21:30:20;86592.22;;;10.74;60.53
60049;BME280;66154;45.544;6.756;2023-05-15T21:35:20;86595.84;;;10.73;60.24
60049;BME280;66154;45.544;6.756;2023-05-15T21:40:21;86585.72;;;10.52;60.22
60049;BME280;66154;45.544;6.756;2023-05-15T21:45:21;86592.44;;;10.69;59.18
60049;BME280;66154;45.544;6.756;2023-05-15T21:50:22;86592.56;;;8.74;67.53
60049;BME280;66154;45.544;6.756;2023-05-15T21:55:23;86590.50;;;8.88;67.53
60049;BME280;66154;45.544;6.756;2023-05-15T22:00:24;86589.44;;;8.89;68.51
60049;BME280;66154;45.544;6.756;2023-05-15T22:05:24;86588.56;;;9.52;65.90
60049;BME280;66154;45.544;6.756;2023-05-15T22:10:25;86591.91;;;9.19;67.89
60049;BME280;66154;45.544;6.756;2023-05-15T22:15:25;86587.91;;;9.09;68.33
60049;BME280;66154;45.544;6.756;2023-05-15T22:20:26;86584.22;;;9.77;65.63
60049;BME280;66154;45.544;6.756;2023-05-15T22:25:28;86587.97;;;9.34;67.11
60049;BME280;66154;45.544;6.756;2023-05-15T22:30:28;86583.13;;;9.66;65.93
60049;BME280;66154;45.544;6.756;2023-05-15T22:35:29;86581.66;;;9.89;65.08
60049;BME280;66154;45.544;6.756;2023-05-15T22:40:29;86580.03;;;9.85;65.09
60049;BME280;66154;45.544;6.756;2023-05-15T22:45:30;86576.06;;;8.83;69.28
60049;BME280;66154;45.544;6.756;2023-05-15T22:50:31;86570.78;;;9.34;68.39
60049;BME280;66154;45.544;6.756;2023-05-15T22:55:31;86559.66;;;8.63;72.10
60049;BME280;66154;45.544;6.756;2023-05-15T23:00:32;86560.78;;;8.24;73.64
60049;BME280;66154;45.544;6.756;2023-05-15T23:05:32;86557.88;;;9.10;69.72
60049;BME280;66154;45.544;6.756;2023-05-15T23:10:33;86564.31;;;9.16;69.40
60049;BME280;66154;45.544;6.756;2023-05-15T23:15:34;86553.94;;;8.37;73.07
60049;BME280;66154;45.544;6.756;2023-05-15T23:20:34;86567.94;;;8.39;74.59
60049;BME280;66154;45.544;6.756;2023-05-15T23:25:35;86563.03;;;8.25;75.72
60049;BME280;66154;45.544;6.756;2023-05-15T23:30:36;86558.66;;;8.89;71.86
60049;BME280;66154;45.544;6.756;2023-05-15T23:35:36;86563.34;;;9.08;70.65
60049;BME280;66154;45.544;6.756;2023-05-15T23:40:37;86566.78;;;8.28;75.39
60049;BME280;66154;45.544;6.756;2023-05-15T23:45:37;86561.19;;;8.77;73.04
60049;BME280;66154;45.544;6.756;2023-05-15T23:50:38;86567.84;;;8.57;73.99
60049;BME280;66154;45.544;6.756;2023-05-15T23:55:38;86565.59;;;8.04;77.70
